Time;durP1;ratioP1;P1;durP2;ratioP2;P2;SDS_P1;SDS_P2;PMS_P1;PMS_P2;Temp;Humidity;BMP_temperature;BMP_pressure;BME280_temperature;BME280_humidity;BME280_pressure;Samples;Min_cycle;Max_cycle;Signal;HPM_P1;HPM_P2
2023/07/08 00:01:51;;;;;;;1.52;1.10;;;22.40;53.40;;;;;;6270753;28;20095;-70
2023/07/08 00:04:51;;;;;;;1.20;1.00;;;22.50;53.60;;;;;;6270462;28;20048;-70
2023/07/08 00:07:52;;;;;;;1.63;1.17;;;22.40;53.50;;;;;;6270065;28;20091;-70
2023/07/08 00:10:53;;;;;;;1.00;0.90;;;22.40;53.50;;;;;;6270392;28;20056;-70
2023/07/08 00:13:53;;;;;;;1.70;1.00;;;22.40;53.60;;;;;;6270968;28;20060;-70
2023/07/08 00:16:54;;;;;;;1.25;1.00;;;22.40;53.60;;;;;;6270166;28;20021;-70
2023/07/08 00:19:54;;;;;;;6.03;1.23;;;22.40;53.60;;;;;;6270155;28;20052;-70
2023/07/08 00:22:55;;;;;;;1.10;0.90;;;22.40;53.70;;;;;;6266911;28;20032;-70
2023/07/08 00:25:56;;;;;;;1.48;1.00;;;22.40;53.70;;;;;;6269994;28;20033;-70
2023/07/08 00:28:57;;;;;;;1.20;1.02;;;22.40;53.80;;;;;;6269458;28;20033;-70
2023/07/08 00:31:57;;;;;;;1.45;1.25;;;22.40;53.80;;;;;;6269849;28;20053;-70
2023/07/08 00:34:58;;;;;;;1.00;0.88;;;22.40;53.90;;;;;;6269662;28;20357;-70
2023/07/08 00:38:01;;;;;;;1.20;1.10;;;22.40;53.90;;;;;;6269746;28;20146;-70
2023/07/08 00:41:01;;;;;;;1.05;0.90;;;22.40;53.90;;;;;;6269649;28;20396;-70
2023/07/08 00:44:02;;;;;;;1.20;1.10;;;22.40;53.90;;;;;;6269419;28;20024;-70
2023/07/08 00:47:08;;;;;;;1.05;0.95;;;22.40;53.90;;;;;;6268018;28;20036;-70
2023/07/08 00:50:11;;;;;;;1.35;1.05;;;22.40;54.00;;;;;;6269434;28;20028;-71
2023/07/08 00:53:29;;;;;;;1.60;1.05;;;22.40;54.00;;;;;;6269040;28;20064;-70
2023/07/08 00:56:53;;;;;;;1.15;1.05;;;22.40;54.00;;;;;;6269523;28;20028;-70
2023/07/08 01:00:03;;;;;;;1.67;1.10;;;22.40;54.10;;;;;;6243698;28;20443;-70
2023/07/08 01:03:03;;;;;;;1.23;1.00;;;22.30;54.10;;;;;;6265132;28;20029;-70
2023/07/08 01:06:05;;;;;;;1.85;1.20;;;22.40;54.20;;;;;;6268648;28;20488;-70
2023/07/08 01:09:09;;;;;;;1.13;1.02;;;22.40;54.20;;;;;;6268840;28;20021;-70
2023/07/08 01:12:18;;;;;;;1.17;1.08;;;22.40;54.20;;;;;;6268711;28;21105;-70
2023/07/08 01:15:22;;;;;;;1.45;1.25;;;22.40;54.20;;;;;;6269004;28;20107;-70
2023/07/08 01:18:24;;;;;;;0.88;0.80;;;22.40;54.20;;;;;;6262170;28;20025;-70
2023/07/08 01:21:36;;;;;;;1.63;1.33;;;22.30;54.10;;;;;;6268705;28;20025;-70
2023/07/08 01:24:39;;;;;;;1.23;0.98;;;22.40;54.30;;;;;;6267999;28;20055;-70
2023/07/08 01:27:44;;;;;;;2.85;1.60;;;22.40;54.30;;;;;;6263018;28;20092;-70
2023/07/08 01:30:45;;;;;;;;;;;22.40;54.30;;;;;;6269009;28;20045;-70
2023/07/08 01:33:46;;;;;;;1.33;1.13;;;22.40;54.30;;;;;;6268032;28;20367;-70
2023/07/08 01:36:54;;;;;;;1.63;1.10;;;22.30;54.20;;;;;;6268777;28;20099;-70
2023/07/08 01:39:54;;;;;;;2.03;1.40;;;22.40;54.30;;;;;;6268060;28;20467;-70
2023/07/08 01:42:56;;;;;;;1.15;1.05;;;22.30;54.30;;;;;;6268375;28;20056;-70
2023/07/08 01:46:00;;;;;;;1.73;1.27;;;22.30;54.30;;;;;;6263601;28;20036;-70
2023/07/08 01:49:01;;;;;;;1.38;1.20;;;22.30;54.30;;;;;;6267901;28;20416;-70
2023/07/08 01:52:02;;;;;;;1.55;1.17;;;22.30;54.30;;;;;;6249811;28;20039;-72
2023/07/08 01:55:04;;;;;;;2.05;1.20;;;22.30;54.40;;;;;;6268074;28;20037;-70
2023/07/08 01:58:04;;;;;;;1.63;1.17;;;22.30;54.40;;;;;;6260990;28;20056;-70
2023/07/08 02:01:06;;;;;;;1.27;1.10;;;22.30;54.50;;;;;;6268719;28;20025;-70
2023/07/08 02:04:06;;;;;;;1.42;1.20;;;22.30;54.50;;;;;;6267841;28;20021;-70
2023/07/08 02:07:07;;;;;;;1.42;1.20;;;22.30;54.50;;;;;;6267541;28;20036;-70
2023/07/08 02:10:08;;;;;;;1.70;1.20;;;22.30;54.50;;;;;;6267477;28;20407;-70
2023/07/08 02:13:09;;;;;;;1.73;1.15;;;22.30;54.60;;;;;;6245227;28;20079;-70
2023/07/08 02:16:09;;;;;;;1.33;1.13;;;22.30;54.60;;;;;;6267606;28;20024;-70
2023/07/08 02:19:11;;;;;;;1.17;1.08;;;22.30;54.60;;;;;;6267538;28;20048;-70
2023/07/08 02:22:12;;;;;;;1.90;1.48;;;22.30;54.70;;;;;;6267809;28;20073;-71
2023/07/08 02:25:12;;;;;;;1.85;1.30;;;22.30;54.70;;;;;;6267906;28;20414;-70
2023/07/08 02:28:13;;;;;;;1.10;1.00;;;22.30;54.70;;;;;;6267337;28;20036;-70
2023/07/08 02:31:14;;;;;;;1.60;1.38;;;22.30;54.80;;;;;;6264423;28;20106;-70
2023/07/08 02:34:14;;;;;;;2.38;1.05;;;22.30;54.80;;;;;;6267254;28;20028;-69
2023/07/08 02:37:15;;;;;;;1.40;1.20;;;22.30;54.80;;;;;;6267464;28;20126;-70
2023/07/08 02:40:16;;;;;;;1.20;0.98;;;22.30;54.80;;;;;;6267425;28;20041;-70
2023/07/08 02:43:16;;;;;;;1.40;1.05;;;22.30;54.80;;;;;;6267382;28;20060;-70
2023/07/08 02:46:17;;;;;;;2.22;1.40;;;22.30;54.80;;;;;;6267059;28;20045;-70
2023/07/08 02:49:17;;;;;;;1.27;1.13;;;22.30;54.90;;;;;;6267956;28;20124;-69
2023/07/08 02:52:18;;;;;;;1.27;1.10;;;22.30;54.90;;;;;;6267435;28;20024;-70
2023/07/08 02:55:18;;;;;;;1.65;1.23;;;22.30;54.90;;;;;;6267328;28;20032;-70
2023/07/08 02:58:19;;;;;;;1.15;1.00;;;22.30;55.00;;;;;;6267018;28;20033;-70
2023/07/08 03:01:20;;;;;;;1.58;1.20;;;22.30;55.00;;;;;;6267263;28;20028;-70
2023/07/08 03:04:21;;;;;;;1.10;1.00;;;22.30;55.00;;;;;;6266919;28;20028;-70
2023/07/08 03:07:22;;;;;;;1.75;1.30;;;22.30;55.00;;;;;;6266599;28;20029;-70
2023/07/08 03:10:23;;;;;;;1.38;1.10;;;22.30;55.00;;;;;;6268608;28;20390;-70
2023/07/08 03:13:24;;;;;;;1.73;1.00;;;22.30;55.10;;;;;;6268285;28;20060;-70
2023/07/08 03:16:24;;;;;;;1.95;1.20;;;22.30;55.80;;;;;;6271764;28;20083;-70
2023/07/08 03:19:25;;;;;;;1.50;1.20;;;22.30;55.10;;;;;;6271214;28;20021;-70
2023/07/08 03:22:26;;;;;;;2.10;1.38;;;22.30;55.20;;;;;;6271943;28;20035;-70
2023/07/08 03:25:27;;;;;;;1.17;1.08;;;22.30;55.20;;;;;;6271057;28;20033;-70
2023/07/08 03:28:27;;;;;;;1.40;1.30;;;22.30;55.20;;;;;;6271548;28;20029;-70
2023/07/08 03:31:28;;;;;;;1.83;1.33;;;22.30;55.20;;;;;;6271108;28;20509;-70
2023/07/08 03:34:29;;;;;;;1.35;1.13;;;22.30;55.20;;;;;;6271834;28;20078;-70
2023/07/08 03:37:29;;;;;;;1.40;1.10;;;22.30;55.30;;;;;;6271646;28;20294;-70
2023/07/08 03:40:30;;;;;;;1.65;1.20;;;22.30;55.30;;;;;;6271166;28;20025;-70
2023/07/08 03:43:32;;;;;;;1.52;1.35;;;22.30;55.30;;;;;;6266645;28;20045;-70
2023/07/08 03:46:33;;;;;;;1.20;1.10;;;22.30;55.30;;;;;;6270932;28;20484;-70
2023/07/08 03:49:34;;;;;;;2.25;1.13;;;22.30;55.30;;;;;;6267419;28;20388;-70
2023/07/08 03:52:34;;;;;;;1.23;1.05;;;22.20;55.20;;;;;;6271035;28;20025;-70
2023/07/08 03:55:35;;;;;;;1.45;1.20;;;22.20;55.30;;;;;;6270786;28;20025;-70
2023/07/08 03:58:35;;;;;;;1.48;1.13;;;22.30;55.40;;;;;;6270786;28;20100;-70
2023/07/08 04:01:40;;;;;;;1.42;1.17;;;22.20;55.30;;;;;;6270622;28;20035;-70
2023/07/08 04:04:41;;;;;;;1.30;1.20;;;22.20;55.30;;;;;;6270715;28;20051;-70
2023/07/08 04:07:42;;;;;;;1.65;1.20;;;22.20;55.30;;;;;;6270428;28;20030;-70
2023/07/08 04:10:42;;;;;;;1.05;0.88;;;22.20;55.50;;;;;;6271431;28;20117;-70
2023/07/08 04:13:43;;;;;;;1.25;1.10;;;22.20;55.40;;;;;;6270473;28;20032;-70
2023/07/08 04:16:56;;;;;;;1.10;0.98;;;22.30;55.60;;;;;;6271032;28;20028;-71
2023/07/08 04:19:57;;;;;;;1.55;1.25;;;22.20;55.50;;;;;;6270047;28;20186;-70
2023/07/08 04:22:58;;;;;;;1.42;1.20;;;22.20;55.50;;;;;;6270042;28;20028;-70
2023/07/08 04:25:59;;;;;;;1.92;1.42;;;22.20;55.50;;;;;;6269596;28;20035;-70
2023/07/08 04:28:59;;;;;;;1.30;1.20;;;22.20;55.50;;;;;;6270436;28;20056;-70
2023/07/08 04:32:00;;;;;;;1.15;1.00;;;22.20;56.30;;;;;;6266389;28;20049;-70
2023/07/08 04:35:00;;;;;;;1.60;1.30;;;22.20;55.60;;;;;;6269950;28;20024;-70
2023/07/08 04:38:01;;;;;;;1.70;1.35;;;22.20;55.60;;;;;;6269887;28;20555;-70
2023/07/08 04:41:01;;;;;;;1.48;1.20;;;22.20;55.60;;;;;;6270150;28;20070;-70
2023/07/08 04:44:02;;;;;;;1.50;1.23;;;22.20;55.70;;;;;;6269499;28;20036;-70
2023/07/08 04:47:03;;;;;;;2.53;1.38;;;22.20;55.70;;;;;;6269523;28;20070;-70
2023/07/08 04:50:04;;;;;;;1.45;1.25;;;22.20;55.70;;;;;;6270167;28;20126;-70
2023/07/08 04:53:05;;;;;;;1.65;1.40;;;22.20;55.70;;;;;;6269438;28;20021;-70
2023/07/08 04:56:05;;;;;;;1.75;1.50;;;22.20;55.80;;;;;;6269503;28;20027;-70
2023/07/08 04:59:08;;;;;;;1.52;1.30;;;22.20;55.80;;;;;;6269517;28;20105;-69
2023/07/08 05:02:09;;;;;;;1.40;1.20;;;22.20;56.50;;;;;;6258103;28;20052;-70
2023/07/08 05:05:10;;;;;;;1.50;1.20;;;22.20;55.80;;;;;;6244058;28;20034;-70
2023/07/08 05:08:12;;;;;;;1.52;1.15;;;22.20;55.90;;;;;;6265550;28;20375;-70
2023/07/08 05:11:12;;;;;;;1.15;1.05;;;22.20;55.80;;;;;;6269090;28;20522;-70
2023/07/08 05:14:13;;;;;;;1.38;1.27;;;22.20;55.90;;;;;;6268940;28;20021;-70
2023/07/08 05:17:14;;;;;;;1.95;1.20;;;22.20;55.90;;;;;;6269190;28;20029;-70
2023/07/08 05:20:15;;;;;;;1.38;1.10;;;22.20;55.90;;;;;;6268438;28;20029;-70
2023/07/08 05:23:15;;;;;;;1.38;1.10;;;22.20;56.00;;;;;;6268557;28;20099;-70
2023/07/08 05:26:16;;;;;;;1.38;1.17;;;22.20;55.90;;;;;;6268653;28;20033;-70
2023/07/08 05:29:17;;;;;;;1.70;1.38;;;22.20;56.00;;;;;;6269105;28;20021;-70
2023/07/08 05:32:18;;;;;;;1.52;1.17;;;22.20;56.70;;;;;;6267833;28;20138;-70
2023/07/08 05:35:19;;;;;;;1.73;1.48;;;22.20;56.60;;;;;;6268134;28;20036;-70
2023/07/08 05:38:20;;;;;;;1.42;1.30;;;22.20;56.00;;;;;;6265616;28;20387;-70
2023/07/08 05:41:20;;;;;;;1.45;1.25;;;22.20;56.00;;;;;;6267931;28;20059;-70
2023/07/08 05:44:21;;;;;;;1.38;1.15;;;22.20;56.00;;;;;;6268621;28;20028;-70
2023/07/08 05:47:21;;;;;;;1.63;1.35;;;22.20;56.00;;;;;;6268206;28;20089;-70
2023/07/08 05:50:22;;;;;;;1.83;1.30;;;22.20;56.10;;;;;;6268621;28;20533;-70
2023/07/08 05:53:23;;;;;;;1.50;1.20;;;22.20;56.20;;;;;;6267825;28;20435;-70
2023/07/08 05:56:23;;;;;;;1.58;1.23;;;22.20;56.10;;;;;;6267896;28;20036;-70
2023/07/08 05:59:24;;;;;;;1.20;1.10;;;22.20;56.10;;;;;;6268127;28;20083;-70
2023/07/08 06:02:25;;;;;;;1.52;1.20;;;22.20;56.10;;;;;;6268447;28;20021;-70
2023/07/08 06:05:26;;;;;;;1.27;1.02;;;22.20;56.10;;;;;;6268178;28;20037;-70
2023/07/08 06:08:26;;;;;;;1.92;1.52;;;22.20;56.10;;;;;;6267871;28;20035;-70
2023/07/08 06:11:27;;;;;;;1.27;1.17;;;22.20;56.10;;;;;;6267105;28;20044;-70
2023/07/08 06:14:28;;;;;;;1.40;1.15;;;22.20;56.20;;;;;;6267161;28;20025;-70
2023/07/08 06:17:29;;;;;;;1.23;1.05;;;22.20;56.10;;;;;;6268095;28;20380;-70
2023/07/08 06:20:29;;;;;;;1.20;1.10;;;22.20;56.20;;;;;;6267653;28;20025;-70
2023/07/08 06:23:30;;;;;;;1.40;1.15;;;22.20;56.20;;;;;;6267722;28;20437;-70
2023/07/08 06:26:30;;;;;;;1.50;1.40;;;22.20;56.20;;;;;;6267890;28;20449;-70
2023/07/08 06:29:33;;;;;;;1.20;1.10;;;22.20;56.20;;;;;;6267349;28;20024;-70
2023/07/08 06:32:33;;;;;;;1.90;1.23;;;22.20;56.20;;;;;;6267428;28;20025;-70
2023/07/08 06:35:34;;;;;;;1.52;1.38;;;22.20;56.30;;;;;;6267576;28;20064;-70
2023/07/08 06:38:34;;;;;;;1.02;0.90;;;22.20;56.20;;;;;;6267689;28;20025;-70
2023/07/08 06:41:35;;;;;;;1.30;1.20;;;22.20;56.30;;;;;;6267483;28;20024;-70
2023/07/08 06:44:37;;;;;;;1.80;1.35;;;22.20;56.30;;;;;;6269820;28;20023;-70
2023/07/08 06:47:38;;;;;;;1.38;1.15;;;22.20;56.20;;;;;;6272658;28;20031;-70
2023/07/08 06:50:43;;;;;;;1.10;1.00;;;22.10;56.20;;;;;;6272187;28;20515;-70
2023/07/08 06:53:43;;;;;;;1.20;1.10;;;22.20;56.20;;;;;;6272656;28;20039;-70
2023/07/08 06:56:44;;;;;;;1.30;1.13;;;22.10;56.20;;;;;;6272173;28;20115;-70
2023/07/08 06:59:44;;;;;;;1.50;1.05;;;22.10;56.20;;;;;;6272572;28;20398;-70
2023/07/08 07:02:45;;;;;;;1.13;1.00;;;22.20;56.30;;;;;;6272134;28;20028;-70
2023/07/08 07:05:46;;;;;;;1.15;1.00;;;22.10;56.20;;;;;;6272179;28;20405;-69
2023/07/08 07:08:46;;;;;;;1.02;0.93;;;22.20;56.30;;;;;;6272113;28;20021;-70
2023/07/08 07:11:47;;;;;;;1.25;1.08;;;22.20;56.30;;;;;;6272309;28;20468;-70
2023/07/08 07:14:49;;;;;;;1.20;1.10;;;22.20;56.30;;;;;;6271634;28;20453;-70
2023/07/08 07:17:50;;;;;;;1.05;0.90;;;22.10;56.20;;;;;;6268626;28;20032;-70
2023/07/08 07:20:54;;;;;;;1.25;1.15;;;22.20;56.30;;;;;;6272256;28;20069;-70
2023/07/08 07:23:54;;;;;;;1.67;1.17;;;22.10;56.20;;;;;;6271168;28;20028;-70
2023/07/08 07:26:55;;;;;;;1.33;1.13;;;22.20;56.30;;;;;;6271531;28;20029;-70
2023/07/08 07:29:59;;;;;;;1.10;1.00;;;22.10;56.30;;;;;;6270536;28;20056;-70
2023/07/08 07:33:00;;;;;;;1.00;0.90;;;22.20;56.30;;;;;;6267118;28;20476;-70
2023/07/08 07:36:01;;;;;;;2.30;1.00;;;22.10;56.20;;;;;;6271127;28;20048;-70
2023/07/08 07:39:01;;;;;;;1.30;1.00;;;22.10;56.20;;;;;;6271323;28;20044;-70
2023/07/08 07:42:02;;;;;;;1.00;0.90;;;22.10;56.20;;;;;;6271383;28;20083;-70
2023/07/08 07:45:03;;;;;;;1.20;1.00;;;22.10;56.20;;;;;;6270263;28;20234;-70
2023/07/08 07:48:04;;;;;;;1.50;1.10;;;22.10;56.30;;;;;;6271049;28;20071;-70
2023/07/08 07:51:07;;;;;;;1.10;0.95;;;22.10;56.30;;;;;;6271458;28;20511;-70
2023/07/08 07:54:07;;;;;;;1.13;0.93;;;22.10;56.30;;;;;;6270745;28;20017;-70
2023/07/08 07:57:08;;;;;;;0.90;0.90;;;22.10;56.30;;;;;;6270224;28;20052;-70
2023/07/08 08:00:09;;;;;;;1.38;1.05;;;22.10;56.30;;;;;;6271014;28;20025;-70
2023/07/08 08:03:10;;;;;;;1.33;1.00;;;22.10;56.30;;;;;;6270628;28;20545;-70
2023/07/08 08:06:11;;;;;;;0.75;0.75;;;22.10;56.30;;;;;;6270427;28;20115;-70
2023/07/08 08:09:11;;;;;;;1.15;1.00;;;22.10;56.30;;;;;;6269919;28;20032;-70
2023/07/08 08:12:12;;;;;;;1.63;1.17;;;22.10;56.30;;;;;;6270429;28;20565;-70
2023/07/08 08:15:12;;;;;;;1.00;0.90;;;22.10;56.40;;;;;;6270235;28;20048;-70
2023/07/08 08:18:13;;;;;;;1.27;0.80;;;22.10;56.40;;;;;;6270540;28;20066;-70
2023/07/08 08:21:14;;;;;;;1.17;1.00;;;22.10;56.40;;;;;;6267100;28;20037;-70
2023/07/08 08:24:15;;;;;;;0.80;0.80;;;22.10;56.40;;;;;;6270182;28;20141;-70
2023/07/08 08:27:15;;;;;;;1.00;0.90;;;22.10;56.40;;;;;;6266826;28;20095;-70
2023/07/08 08:30:16;;;;;;;0.85;0.80;;;22.10;56.60;;;;;;6270164;28;20052;-70
2023/07/08 08:33:19;;;;;;;1.23;0.80;;;22.10;56.40;;;;;;6270186;28;20242;-70
2023/07/08 08:36:23;;;;;;;0.98;0.90;;;22.10;56.40;;;;;;6269615;28;20017;-70
2023/07/08 08:39:26;;;;;;;0.90;0.90;;;22.10;57.10;;;;;;6270083;28;20055;-70
2023/07/08 08:42:33;;;;;;;1.00;0.90;;;22.10;56.40;;;;;;6269843;28;20029;-70
2023/07/08 08:45:39;;;;;;;0.65;0.65;;;22.10;57.10;;;;;;6263431;28;20083;-70
2023/07/08 08:49:10;;;;;;;1.02;0.90;;;22.10;56.40;;;;;;6269189;28;20036;-70
2023/07/08 08:52:11;;;;;;;1.55;1.00;;;22.10;56.40;;;;;;6269218;28;20361;-70
2023/07/08 08:55:13;;;;;;;1.13;1.00;;;22.10;56.50;;;;;;6269538;28;20048;-70
2023/07/08 08:58:38;;;;;;;1.00;0.90;;;22.10;56.50;;;;;;6269359;28;20407;-70
2023/07/08 09:01:39;;;;;;;1.03;0.90;;;22.10;56.50;;;;;;6269281;28;20033;-70
2023/07/08 09:04:40;;;;;;;0.93;0.90;;;22.10;56.50;;;;;;6264364;28;20021;-70
2023/07/08 09:07:59;;;;;;;0.73;0.73;;;22.10;56.50;;;;;;6267972;28;20036;-70
2023/07/08 09:11:25;;;;;;;1.20;1.02;;;22.10;56.50;;;;;;6269764;28;20037;-70
2023/07/08 09:14:28;;;;;;;1.10;1.00;;;22.10;56.50;;;;;;6268963;28;20112;-69
2023/07/08 09:17:34;;;;;;;0.73;0.73;;;22.10;56.50;;;;;;6269177;28;20017;-70
2023/07/08 09:20:36;;;;;;;1.30;1.08;;;22.10;56.50;;;;;;6269107;28;20468;-70
2023/07/08 09:23:37;;;;;;;0.80;0.80;;;22.10;56.50;;;;;;6268867;28;20032;-70
2023/07/08 09:26:40;;;;;;;0.80;0.80;;;22.10;56.50;;;;;;6268562;28;20414;-69
2023/07/08 09:29:41;;;;;;;1.10;1.00;;;22.10;56.50;;;;;;6268776;28;20552;-70
2023/07/08 09:32:42;;;;;;;1.17;1.00;;;22.10;56.50;;;;;;6268385;28;20071;-70
2023/07/08 09:35:46;;;;;;;1.10;1.00;;;22.10;56.50;;;;;;6268859;28;20491;-70
2023/07/08 09:38:49;;;;;;;1.00;0.90;;;22.10;56.50;;;;;;6269050;28;20100;-69
2023/07/08 09:41:50;;;;;;;0.85;0.85;;;22.10;56.50;;;;;;6268933;28;20417;-70
2023/07/08 09:44:58;;;;;;;1.27;0.88;;;22.10;56.50;;;;;;6268113;28;20222;-70
2023/07/08 09:48:01;;;;;;;0.80;0.80;;;22.10;56.50;;;;;;6250161;28;20021;-70
2023/07/08 09:51:04;;;;;;;0.80;0.80;;;22.10;56.50;;;;;;6266759;28;20439;-71
2023/07/08 09:54:04;;;;;;;1.10;1.00;;;22.10;56.50;;;;;;6263349;28;20419;-70
2023/07/08 09:57:12;;;;;;;0.90;0.65;;;22.10;56.50;;;;;;6266378;28;20102;-70
2023/07/08 10:00:16;;;;;;;0.82;0.80;;;22.10;56.60;;;;;;6267092;28;20037;-69
2023/07/08 10:03:22;;;;;;;0.90;0.80;;;22.10;56.60;;;;;;6265937;28;20025;-70
2023/07/08 10:06:27;;;;;;;1.08;0.90;;;22.10;56.60;;;;;;6266461;28;20561;-70
2023/07/08 10:09:30;;;;;;;0.70;0.70;;;22.10;56.60;;;;;;6266301;28;20025;-70
2023/07/08 10:12:33;;;;;;;0.85;0.80;;;22.10;56.60;;;;;;6265884;28;20056;-70
2023/07/08 10:15:44;;;;;;;1.13;0.80;;;22.10;56.60;;;;;;6266564;28;20025;-70
2023/07/08 10:18:44;;;;;;;0.80;0.80;;;22.10;56.60;;;;;;6265576;28;20075;-70
2023/07/08 10:22:04;;;;;;;1.10;1.00;;;22.10;56.60;;;;;;6266429;28;20025;-70
2023/07/08 10:25:27;;;;;;;1.00;0.80;;;22.10;56.70;;;;;;6266174;28;20035;-70
2023/07/08 10:28:58;;;;;;;0.80;0.80;;;22.10;56.60;;;;;;6265961;28;20039;-71
2023/07/08 10:32:24;;;;;;;0.70;0.60;;;22.10;56.70;;;;;;6218955;28;20079;-70
2023/07/08 10:35:34;;;;;;;1.20;1.00;;;22.10;56.60;;;;;;6266394;28;20009;-70
2023/07/08 10:38:53;;;;;;;0.75;0.75;;;22.10;56.60;;;;;;6265605;28;20055;-70
2023/07/08 10:42:02;;;;;;;0.70;0.70;;;22.10;56.70;;;;;;6259750;28;20506;-69
2023/07/08 10:45:17;;;;;;;0.70;0.70;;;22.10;56.80;;;;;;6265489;28;20029;-70
2023/07/08 10:48:42;;;;;;;1.00;0.90;;;22.10;56.70;;;;;;6265811;28;20145;-70
2023/07/08 10:52:16;;;;;;;0.75;0.70;;;22.10;56.70;;;;;;6265495;28;20499;-70
2023/07/08 10:55:29;;;;;;;0.88;0.80;;;22.10;56.70;;;;;;6265983;28;20022;-70
2023/07/08 10:58:51;;;;;;;0.65;0.63;;;22.10;56.80;;;;;;6266162;28;20025;-70
2023/07/08 11:02:21;;;;;;;1.00;0.88;;;22.10;56.80;;;;;;6265900;28;20029;-70
2023/07/08 11:05:28;;;;;;;0.85;0.80;;;22.10;56.80;;;;;;6243253;28;20041;-70
2023/07/08 11:08:56;;;;;;;0.90;0.73;;;22.10;56.80;;;;;;6265171;28;20086;-70
2023/07/08 11:12:03;;;;;;;0.70;0.60;;;22.10;56.70;;;;;;6261957;28;20030;-70
2023/07/08 11:15:25;;;;;;;0.85;0.70;;;22.10;56.80;;;;;;6265204;28;20028;-70
2023/07/08 11:18:40;;;;;;;0.85;0.85;;;22.10;56.80;;;;;;6265439;28;20021;-70
2023/07/08 11:21:47;;;;;;;0.95;0.73;;;22.10;56.80;;;;;;6265676;28;20120;-71
2023/07/08 11:24:51;;;;;;;1.02;0.90;;;22.10;56.80;;;;;;6255634;28;20108;-70
2023/07/08 11:27:55;;;;;;;1.08;0.80;;;22.10;56.80;;;;;;6265736;28;20407;-71
2023/07/08 11:31:00;;;;;;;1.20;0.97;;;22.10;56.80;;;;;;6266466;28;20494;-70
2023/07/08 11:34:02;;;;;;;0.90;0.80;;;22.10;56.80;;;;;;6269665;28;20025;-70
2023/07/08 11:37:04;;;;;;;0.63;0.60;;;22.10;56.80;;;;;;6270845;28;20021;-70
2023/07/08 11:40:05;;;;;;;0.68;0.68;;;22.10;56.80;;;;;;6269538;28;20083;-70
2023/07/08 11:43:06;;;;;;;0.57;0.57;;;22.10;56.80;;;;;;6268578;28;20029;-70
2023/07/08 11:46:07;;;;;;;1.75;1.20;;;22.10;56.80;;;;;;6254564;28;20037;-70
2023/07/08 11:49:15;;;;;;;0.88;0.75;;;22.10;56.80;;;;;;6269141;28;20032;-70
2023/07/08 11:52:19;;;;;;;0.63;0.63;;;22.10;56.80;;;;;;6269068;28;20151;-70
2023/07/08 11:55:47;;;;;;;1.02;0.93;;;22.10;56.80;;;;;;6269252;28;20052;-70
2023/07/08 11:59:15;;;;;;;0.60;0.60;;;22.10;56.80;;;;;;6269825;28;20376;-70
2023/07/08 12:02:18;;;;;;;0.80;0.80;;;22.10;56.80;;;;;;6244360;28;20755;-70
2023/07/08 12:05:31;;;;;;;1.23;0.90;;;22.10;56.80;;;;;;6267401;28;20021;-70
2023/07/08 12:08:40;;;;;;;0.70;0.70;;;22.10;56.80;;;;;;6269736;28;20112;-70
2023/07/08 12:11:45;;;;;;;0.70;0.60;;;22.10;56.80;;;;;;6252839;28;20507;-70
2023/07/08 12:14:45;;;;;;;0.70;0.70;;;22.10;56.90;;;;;;6254079;28;20032;-70
2023/07/08 12:17:47;;;;;;;0.90;0.77;;;22.10;56.90;;;;;;6268228;28;20058;-70
2023/07/08 12:21:00;;;;;;;0.80;0.70;;;22.10;56.90;;;;;;6254015;28;20507;-70
2023/07/08 12:24:06;;;;;;;2.40;0.80;;;22.10;56.90;;;;;;6268796;28;20449;-70
2023/07/08 12:27:09;;;;;;;0.70;0.70;;;22.10;56.90;;;;;;6268640;28;20029;-70
2023/07/08 12:30:11;;;;;;;0.65;0.65;;;22.10;56.90;;;;;;6261342;28;20057;-70
2023/07/08 12:33:27;;;;;;;1.33;0.60;;;22.10;56.90;;;;;;6255410;28;20033;-69
2023/07/08 12:36:30;;;;;;;0.77;0.77;;;22.10;56.90;;;;;;6266323;28;20025;-69
2023/07/08 12:39:34;;;;;;;0.60;0.60;;;22.10;56.90;;;;;;6266876;28;20021;-70
2023/07/08 12:42:35;;;;;;;0.95;0.82;;;22.10;56.90;;;;;;6258707;28;20551;-70
2023/07/08 12:45:36;;;;;;;1.10;0.70;;;22.10;56.90;;;;;;6268246;28;20036;-70
2023/07/08 12:48:38;;;;;;;0.60;0.60;;;22.10;56.90;;;;;;6260224;28;20507;-70
2023/07/08 12:51:43;;;;;;;0.77;0.55;;;22.10;56.90;;;;;;6259604;28;20521;-70
2023/07/08 12:54:43;;;;;;;0.93;0.77;;;22.10;56.90;;;;;;6267722;28;20032;-70
2023/07/08 12:57:47;;;;;;;0.70;0.70;;;22.10;56.90;;;;;;6268542;28;20083;-70
2023/07/08 13:00:48;;;;;;;0.68;0.68;;;22.10;56.90;;;;;;6267273;28;20083;-69
2023/07/08 13:03:53;;;;;;;0.73;0.63;;;22.10;56.90;;;;;;6267977;28;20029;-70
2023/07/08 13:06:54;;;;;;;0.73;0.70;;;22.10;56.90;;;;;;6264499;28;20044;-70
2023/07/08 13:09:55;;;;;;;0.50;0.50;;;22.10;56.90;;;;;;6241933;28;20025;-70
2023/07/08 13:13:03;;;;;;;0.55;0.55;;;22.10;56.90;;;;;;6257087;28;20364;-70
2023/07/08 13:16:05;;;;;;;1.17;0.82;;;22.10;56.90;;;;;;6267390;28;20027;-70
2023/07/08 13:19:05;;;;;;;0.73;0.70;;;22.10;56.90;;;;;;6268012;28;20551;-70
2023/07/08 13:22:09;;;;;;;0.60;0.57;;;22.10;57.00;;;;;;6265936;28;20035;-70
2023/07/08 13:25:15;;;;;;;0.93;0.80;;;22.10;56.90;;;;;;6267732;28;20021;-70
2023/07/08 13:28:27;;;;;;;1.00;0.70;;;22.10;56.90;;;;;;6262410;28;20020;-70
2023/07/08 13:31:34;;;;;;;0.70;0.70;;;22.10;56.90;;;;;;6266524;28;20059;-70
2023/07/08 13:34:35;;;;;;;0.95;0.70;;;22.10;56.90;;;;;;6266447;28;20052;-70
2023/07/08 13:37:35;;;;;;;2.03;0.80;;;22.10;56.90;;;;;;6267132;28;20390;-70
2023/07/08 13:40:41;;;;;;;1.40;0.88;;;22.10;56.90;;;;;;6267245;28;20433;-70
2023/07/08 13:43:41;;;;;;;1.00;0.90;;;22.10;57.00;;;;;;6266103;28;20396;-70
2023/07/08 13:47:01;;;;;;;1.10;0.80;;;22.10;57.00;;;;;;6266882;28;20126;-69
2023/07/08 13:50:15;;;;;;;0.73;0.68;;;22.10;57.00;;;;;;6266654;28;20568;-70
2023/07/08 13:53:24;;;;;;;1.17;0.85;;;22.10;57.00;;;;;;6265591;28;20103;-70
2023/07/08 13:56:30;;;;;;;1.00;0.88;;;22.10;57.00;;;;;;6267031;28;20056;-70
2023/07/08 13:59:31;;;;;;;1.20;0.93;;;22.10;57.00;;;;;;6266004;28;20519;-70
2023/07/08 14:02:33;;;;;;;1.10;0.85;;;22.10;57.00;;;;;;6254159;28;20021;-70
2023/07/08 14:05:36;;;;;;;0.82;0.82;;;22.10;57.00;;;;;;6267057;28;20025;-70
2023/07/08 14:08:36;;;;;;;0.93;0.90;;;22.10;57.00;;;;;;6266577;28;20074;-70
2023/07/08 14:11:37;;;;;;;1.33;1.00;;;22.10;57.00;;;;;;6263069;28;20037;-70
2023/07/08 14:14:37;;;;;;;1.00;0.80;;;22.10;57.00;;;;;;6266355;28;20136;-70
2023/07/08 14:17:39;;;;;;;1.40;0.90;;;22.10;57.00;;;;;;6245451;28;20031;-70
2023/07/08 14:20:39;;;;;;;1.02;0.77;;;22.10;57.00;;;;;;6266741;28;20063;-70
2023/07/08 14:23:40;;;;;;;1.25;1.00;;;22.10;57.00;;;;;;6264359;28;20025;-70
2023/07/08 14:26:45;;;;;;;1.80;0.80;;;22.10;57.00;;;;;;6266729;28;20448;-70
2023/07/08 14:29:49;;;;;;;1.27;1.00;;;22.10;57.00;;;;;;6266085;28;20059;-70
2023/07/08 14:32:49;;;;;;;1.30;1.10;;;22.10;57.00;;;;;;6265556;28;20029;-70
2023/07/08 14:35:50;;;;;;;1.27;0.82;;;22.10;57.00;;;;;;6266645;28;20482;-70
2023/07/08 14:38:50;;;;;;;3.22;1.00;;;22.10;57.00;;;;;;6266014;28;20086;-70
2023/07/08 14:41:51;;;;;;;1.98;1.10;;;22.00;57.00;;;;;;6254443;28;20523;-70
2023/07/08 14:44:52;;;;;;;0.95;0.70;;;22.10;57.00;;;;;;6259496;28;20383;-70
2023/07/08 14:47:53;;;;;;;1.77;1.17;;;22.10;57.10;;;;;;6266279;28;20029;-70
2023/07/08 14:50:54;;;;;;;1.30;1.00;;;22.10;57.10;;;;;;6253220;28;20140;-70
2023/07/08 14:53:54;;;;;;;1.70;1.02;;;22.10;57.00;;;;;;6255462;28;20501;-70
2023/07/08 14:56:56;;;;;;;1.35;0.95;;;22.10;57.00;;;;;;6265043;28;20040;-70
2023/07/08 14:59:56;;;;;;;3.20;0.90;;;22.10;57.00;;;;;;6266577;28;20081;-70
2023/07/08 15:02:58;;;;;;;1.23;0.80;;;22.10;57.00;;;;;;6265256;28;20480;-70
2023/07/08 15:05:58;;;;;;;1.85;0.73;;;22.10;57.10;;;;;;6266143;28;20091;-70
2023/07/08 15:08:59;;;;;;;1.33;0.80;;;22.00;57.00;;;;;;6270900;28;20021;-70
2023/07/08 15:12:00;;;;;;;1.08;0.70;;;22.10;57.10;;;;;;6269542;28;20035;-70
2023/07/08 15:15:01;;;;;;;2.67;0.70;;;22.10;57.10;;;;;;6270323;28;20488;-70
2023/07/08 15:18:05;;;;;;;1.13;0.70;;;22.00;57.00;;;;;;6270323;28;20036;-70
2023/07/08 15:21:11;;;;;;;0.90;0.75;;;22.10;57.10;;;;;;6270044;28;20511;-70
2023/07/08 15:24:13;;;;;;;1.60;1.02;;;22.10;57.10;;;;;;6270349;28;20031;-71
2023/07/08 15:27:14;;;;;;;0.85;0.77;;;22.10;57.10;;;;;;6269982;28;20033;-70
2023/07/08 15:30:21;;;;;;;1.15;0.80;;;22.10;57.10;;;;;;6270310;28;20052;-70
2023/07/08 15:33:22;;;;;;;1.13;0.90;;;22.10;57.10;;;;;;6269156;28;20017;-70
2023/07/08 15:36:23;;;;;;;1.35;0.70;;;22.10;57.10;;;;;;6269728;28;20036;-70
2023/07/08 15:39:23;;;;;;;0.80;0.70;;;22.10;57.20;;;;;;6270012;28;20059;-70
2023/07/08 15:42:24;;;;;;;1.92;1.10;;;22.10;57.20;;;;;;6254860;28;20022;-70
2023/07/08 15:45:27;;;;;;;0.70;0.70;;;22.10;57.10;;;;;;6269611;28;20617;-70
2023/07/08 15:48:28;;;;;;;0.65;0.63;;;22.10;57.20;;;;;;6269035;28;20459;-70
2023/07/08 15:51:29;;;;;;;0.95;0.90;;;22.00;57.10;;;;;;6269573;28;20071;-70
2023/07/08 15:54:29;;;;;;;1.08;0.90;;;22.00;57.00;;;;;;6258161;28;20094;-70
2023/07/08 15:57:30;;;;;;;3.90;1.00;;;22.00;57.10;;;;;;6267864;28;20032;-70